createdAt,value
2023-01-22T00:01:13.952Z,43.75
2023-01-22T00:03:45.527Z,43.75
2023-01-22T00:06:16.473Z,42.50
2023-01-22T00:08:44.540Z,43.55
2023-01-22T00:11:13.310Z,45.10
2023-01-22T00:13:41.993Z,47.42
2023-01-22T00:16:13.462Z,46.65
2023-01-22T00:18:41.548Z,47.63
2023-01-22T00:21:09.613Z,43.00
2023-01-22T00:23:39.233Z,39.40
2023-01-22T00:26:11.016Z,40.92
2023-01-22T00:28:41.564Z,39.00
2023-01-22T00:31:11.289Z,37.80
2023-01-22T00:33:40.618Z,38.67
2023-01-22T00:36:10.436Z,37.75
2023-01-22T00:38:40.245Z,38.05
2023-01-22T00:41:09.665Z,35.05
2023-01-22T00:43:39.543Z,37.37
2023-01-22T00:46:08.830Z,35.80
2023-01-22T00:48:36.940Z,36.05
2023-01-22T00:51:05.181Z,31.48
2023-01-22T00:53:33.136Z,32.60
2023-01-22T00:56:03.791Z,32.75
2023-01-22T00:58:31.997Z,32.53
2023-01-22T01:01:00.789Z,31.20
2023-01-22T01:03:30.508Z,31.75
2023-01-22T01:06:00.303Z,29.65
2023-01-22T01:08:30.541Z,29.63
2023-01-22T01:10:59.997Z,29.27
2023-01-22T01:13:31.476Z,29.40
2023-01-22T01:16:04.120Z,27.60
2023-01-22T01:18:33.460Z,27.00
2023-01-22T01:21:02.083Z,28.65
2023-01-22T01:23:30.393Z,29.42
2023-01-22T01:25:58.700Z,28.30
2023-01-22T01:28:28.696Z,29.15
2023-01-22T01:31:02.511Z,29.92
2023-01-22T01:33:30.551Z,26.17
2023-01-22T01:36:03.016Z,25.40
2023-01-22T01:38:31.288Z,24.60
2023-01-22T01:40:59.251Z,29.45
2023-01-22T01:43:28.104Z,27.58
2023-01-22T01:45:58.836Z,24.85
2023-01-22T01:48:31.046Z,24.83
2023-01-22T01:51:04.084Z,25.45
2023-01-22T01:53:32.817Z,26.38
2023-01-22T01:56:03.355Z,25.98
2023-01-22T01:58:34.348Z,24.35
2023-01-22T02:01:09.544Z,23.27
2023-01-22T02:03:39.225Z,28.58
2023-01-22T02:06:10.342Z,22.35
2023-01-22T02:08:38.584Z,26.00
2023-01-22T02:11:06.889Z,22.87
2023-01-22T02:13:37.132Z,23.48
2023-01-22T02:16:07.915Z,21.50
2023-01-22T02:18:35.913Z,24.08
2023-01-22T02:21:05.557Z,23.40
2023-01-22T02:23:33.546Z,21.20
2023-01-22T02:26:01.881Z,22.20
2023-01-22T02:28:29.793Z,23.58
2023-01-22T02:30:57.861Z,23.42
2023-01-22T02:33:25.873Z,21.40
2023-01-22T02:35:53.860Z,20.87
2023-01-22T02:38:23.228Z,21.83
2023-01-22T02:40:51.293Z,22.98
2023-01-22T02:43:19.357Z,22.30
2023-01-22T02:45:47.547Z,20.92
2023-01-22T02:48:16.078Z,21.90
2023-01-22T02:50:45.091Z,21.13
2023-01-22T02:53:13.598Z,19.90
2023-01-22T02:55:45.024Z,18.83
2023-01-22T02:58:13.201Z,21.10
2023-01-22T03:00:41.218Z,19.00
2023-01-22T03:03:15.430Z,19.20
2023-01-22T03:05:49.446Z,18.33
2023-01-22T03:08:18.384Z,19.35
2023-01-22T03:10:47.962Z,21.05
2023-01-22T03:13:33.470Z,20.02
2023-01-22T03:16:22.203Z,20.00
2023-01-22T03:19:07.430Z,18.00
2023-01-22T03:21:35.375Z,19.40
2023-01-22T03:24:03.339Z,19.98
2023-01-22T03:26:32.906Z,19.50
2023-01-22T03:29:00.908Z,19.52
2023-01-22T03:31:29.266Z,21.33
2023-01-22T03:33:57.256Z,20.60
2023-01-22T03:36:25.471Z,21.65
2023-01-22T03:38:53.411Z,23.92
2023-01-22T03:41:21.343Z,21.88
2023-01-22T03:43:50.668Z,18.00
2023-01-22T03:46:21.044Z,20.67
2023-01-22T03:48:52.105Z,22.30
2023-01-22T03:51:20.576Z,20.52
2023-01-22T03:53:48.882Z,18.98
2023-01-22T03:56:19.483Z,19.83
2023-01-22T03:58:48.431Z,20.47
2023-01-22T04:01:20.556Z,18.40
2023-01-22T04:03:49.348Z,19.42
2023-01-22T04:06:17.740Z,18.85
2023-01-22T04:08:47.166Z,20.77
2023-01-22T04:11:15.766Z,18.52
2023-01-22T04:13:44.924Z,20.35
2023-01-22T04:16:14.696Z,18.60
2023-01-22T04:18:44.371Z,19.27
2023-01-22T04:21:13.003Z,21.80
2023-01-22T04:23:40.966Z,18.40
2023-01-22T04:26:08.913Z,21.60
2023-01-22T04:28:36.834Z,20.92
2023-01-22T04:31:05.203Z,17.10
2023-01-22T04:33:33.286Z,19.87
2023-01-22T04:36:02.736Z,18.23
2023-01-22T04:38:30.761Z,16.75
2023-01-22T04:40:58.708Z,18.90
2023-01-22T04:43:26.683Z,19.20
2023-01-22T04:45:54.654Z,17.90
2023-01-22T04:48:22.662Z,19.25
2023-01-22T04:50:50.660Z,17.40
2023-01-22T04:53:19.990Z,18.88
2023-01-22T04:55:47.981Z,16.92
2023-01-22T04:58:16.003Z,15.55
2023-01-22T05:00:44.144Z,16.33
2023-01-22T05:03:12.813Z,19.25
2023-01-22T05:05:40.875Z,14.75
2023-01-22T05:08:08.866Z,16.52
2023-01-22T05:10:38.260Z,16.83
2023-01-22T05:13:07.708Z,16.40
2023-01-22T05:15:36.018Z,16.88
2023-01-22T05:18:03.945Z,18.23
2023-01-22T05:20:31.850Z,16.50
2023-01-22T05:22:59.855Z,16.70
2023-01-22T05:25:27.821Z,17.50
2023-01-22T05:27:57.145Z,17.80
2023-01-22T05:30:25.173Z,16.73
2023-01-22T05:32:56.732Z,15.98
2023-01-22T05:35:24.858Z,18.10
2023-01-22T05:37:52.808Z,17.33
2023-01-22T05:40:20.992Z,16.30
2023-01-22T05:42:49.108Z,17.20
2023-01-22T05:45:18.540Z,19.40
2023-01-22T05:47:46.585Z,15.10
2023-01-22T05:50:14.548Z,16.70
2023-01-22T05:52:42.554Z,14.52
2023-01-22T05:55:10.798Z,14.88
2023-01-22T05:57:38.759Z,16.15
2023-01-22T06:00:08.497Z,13.98
2023-01-22T06:02:37.817Z,15.10
2023-01-22T06:05:06.739Z,15.60
2023-01-22T06:07:34.722Z,16.15
2023-01-22T06:10:03.057Z,14.85
2023-01-22T06:12:31.121Z,14.32
2023-01-22T06:14:59.052Z,16.40
2023-01-22T06:17:26.996Z,18.27
2023-01-22T06:19:56.295Z,14.32
2023-01-22T06:22:24.196Z,17.70
2023-01-22T06:24:52.164Z,16.83
2023-01-22T06:27:20.700Z,15.02
2023-01-22T06:29:48.659Z,17.33
2023-01-22T06:32:16.594Z,15.60
2023-01-22T06:34:44.696Z,20.20
2023-01-22T06:37:14.103Z,18.50
2023-01-22T06:39:42.038Z,18.10
2023-01-22T06:42:10.031Z,13.52
2023-01-22T06:44:37.961Z,15.82
2023-01-22T06:47:05.934Z,16.55
2023-01-22T06:49:33.841Z,16.93
2023-01-22T06:52:01.885Z,20.20
2023-01-22T06:54:31.948Z,14.00
2023-01-22T06:56:59.937Z,13.73
2023-01-22T06:59:27.987Z,16.67
2023-01-22T07:01:55.979Z,19.65
2023-01-22T07:04:23.968Z,17.55
2023-01-22T07:06:51.893Z,18.70
2023-01-22T07:09:19.839Z,17.38
2023-01-22T07:11:49.386Z,14.55
2023-01-22T07:14:28.827Z,16.90
2023-01-22T07:17:03.887Z,15.23
2023-01-22T07:19:31.896Z,16.80
2023-01-22T07:21:59.926Z,16.00
2023-01-22T07:24:27.944Z,14.85
2023-01-22T07:26:57.194Z,12.80
2023-01-22T07:29:25.180Z,14.18
2023-01-22T07:31:53.135Z,15.85
2023-01-22T07:34:21.210Z,14.27
2023-01-22T07:36:49.178Z,14.20
2023-01-22T07:39:17.218Z,16.80
2023-01-22T07:41:45.185Z,14.43
2023-01-22T07:44:15.059Z,14.57
2023-01-22T07:46:43.040Z,12.77
2023-01-22T07:49:12.358Z,13.43
2023-01-22T07:51:40.394Z,15.95
2023-01-22T07:54:08.342Z,14.90
2023-01-22T07:56:36.270Z,14.23
2023-01-22T07:59:04.192Z,15.25
2023-01-22T08:01:33.505Z,11.32
2023-01-22T08:04:01.510Z,11.55
2023-01-22T08:06:29.530Z,11.95
2023-01-22T08:08:59.074Z,12.60
2023-01-22T08:11:27.256Z,13.10
2023-01-22T08:13:55.536Z,13.70
2023-01-22T08:16:23.609Z,14.77
2023-01-22T08:18:52.948Z,13.50
2023-01-22T08:21:20.956Z,14.38
2023-01-22T08:23:49.465Z,13.82
2023-01-22T08:26:17.568Z,13.95
2023-01-22T08:28:45.627Z,13.75
2023-01-22T08:31:26.422Z,14.27
2023-01-22T08:33:58.835Z,16.40
2023-01-22T08:36:26.997Z,11.88
2023-01-22T08:38:55.039Z,13.55
2023-01-22T08:41:23.321Z,13.25
2023-01-22T08:43:52.822Z,12.10
2023-01-22T08:46:20.823Z,13.57
2023-01-22T08:48:50.150Z,14.03
2023-01-22T08:51:19.627Z,14.35
2023-01-22T08:53:47.628Z,12.47
2023-01-22T08:56:15.641Z,15.55
2023-01-22T08:58:43.721Z,15.10
2023-01-22T09:01:17.030Z,15.70
2023-01-22T09:03:45.059Z,16.37
2023-01-22T09:06:13.645Z,12.07
2023-01-22T09:08:42.930Z,13.63
2023-01-22T09:11:10.928Z,14.95
2023-01-22T09:13:38.858Z,14.07
2023-01-22T09:16:10.862Z,12.90
2023-01-22T09:18:39.102Z,14.45
2023-01-22T09:21:08.140Z,15.07
2023-01-22T09:23:36.170Z,12.30
2023-01-22T09:26:05.862Z,12.50
2023-01-22T09:28:35.952Z,15.48
2023-01-22T09:31:04.240Z,13.80
2023-01-22T09:33:32.229Z,15.10
2023-01-22T09:36:09.037Z,13.27
2023-01-22T09:38:37.207Z,11.38
2023-01-22T09:41:17.177Z,12.37
2023-01-22T09:43:51.707Z,16.40
2023-01-22T09:46:25.179Z,18.80
2023-01-22T09:48:57.836Z,13.90
2023-01-22T09:51:25.907Z,14.35
2023-01-22T09:53:57.909Z,14.38
2023-01-22T09:56:34.334Z,13.60
2023-01-22T09:59:05.519Z,14.40
2023-01-22T10:01:34.707Z,14.98
2023-01-22T10:04:06.274Z,17.25
2023-01-22T10:06:34.721Z,14.10
2023-01-22T10:09:12.989Z,14.97
2023-01-22T10:11:43.911Z,17.25
2023-01-22T10:14:20.936Z,11.82
2023-01-22T10:16:49.435Z,15.88
2023-01-22T10:19:21.277Z,13.25
2023-01-22T10:21:52.955Z,16.25
2023-01-22T10:24:20.935Z,12.50
2023-01-22T10:26:54.293Z,17.93
2023-01-22T10:29:27.159Z,13.18
2023-01-22T10:31:57.248Z,15.88
2023-01-22T10:34:30.878Z,17.08
2023-01-22T10:37:02.855Z,13.35
2023-01-22T10:39:40.218Z,16.15
2023-01-22T10:42:17.649Z,12.93
2023-01-22T10:44:46.175Z,14.70
2023-01-22T10:47:20.878Z,10.02
2023-01-22T10:49:49.542Z,13.00
2023-01-22T10:52:23.858Z,10.93
2023-01-22T10:54:56.238Z,11.60
2023-01-22T10:57:28.644Z,12.50
2023-01-22T11:00:06.361Z,12.50
2023-01-22T11:02:37.029Z,10.57
2023-01-22T11:05:18.977Z,12.00
2023-01-22T11:07:49.445Z,9.80
2023-01-22T11:10:20.989Z,13.73
2023-01-22T11:12:54.831Z,14.05
2023-01-22T11:15:31.485Z,12.32
2023-01-22T11:18:02.225Z,15.15
2023-01-22T11:20:37.775Z,11.13
2023-01-22T11:23:28.612Z,11.75
2023-01-22T11:26:04.283Z,11.50
2023-01-22T11:28:47.242Z,13.27
2023-01-22T11:31:27.373Z,10.80
2023-01-22T11:34:21.886Z,15.15
2023-01-22T11:36:55.783Z,16.35
2023-01-22T11:39:41.890Z,12.57
2023-01-22T11:42:24.760Z,11.23
2023-01-22T11:45:06.198Z,15.13
2023-01-22T11:47:58.581Z,9.90
2023-01-22T11:50:31.307Z,12.48
2023-01-22T11:53:14.321Z,14.40
2023-01-22T11:55:55.741Z,11.30
2023-01-22T11:58:32.447Z,12.23
2023-01-22T12:01:24.000Z,12.07
2023-01-22T12:04:22.682Z,12.32
2023-01-22T12:07:14.202Z,12.65
2023-01-22T12:09:48.936Z,16.53
2023-01-22T12:12:29.510Z,13.18
2023-01-22T12:15:13.099Z,10.48
2023-01-22T12:17:55.412Z,13.75
2023-01-22T12:20:45.656Z,13.45
2023-01-22T12:23:20.242Z,10.13
2023-01-22T12:25:52.020Z,13.18
2023-01-22T12:28:25.675Z,11.90
2023-01-22T12:31:01.164Z,9.48
2023-01-22T12:33:34.356Z,10.37
2023-01-22T12:36:05.459Z,13.50
2023-01-22T12:38:43.520Z,11.88
2023-01-22T12:41:26.054Z,10.93
2023-01-22T12:43:56.292Z,13.07
2023-01-22T12:46:32.294Z,10.10
2023-01-22T12:49:06.947Z,11.70
2023-01-22T12:51:41.325Z,12.00
2023-01-22T12:54:20.911Z,13.13
2023-01-22T12:56:49.999Z,12.15
2023-01-22T12:59:43.228Z,11.95
2023-01-22T13:02:39.143Z,11.07
2023-01-22T13:05:23.891Z,9.20
2023-01-22T13:08:02.336Z,11.30
2023-01-22T13:10:31.801Z,10.27
2023-01-22T13:13:03.091Z,10.25
2023-01-22T13:15:33.960Z,10.20
2023-01-22T13:18:08.013Z,10.07
2023-01-22T13:20:47.860Z,10.80
2023-01-22T13:23:16.853Z,9.60
2023-01-22T13:25:44.847Z,13.45
2023-01-22T13:28:18.727Z,13.95
2023-01-22T13:30:57.136Z,13.60
2023-01-22T13:33:25.373Z,9.73
2023-01-22T13:35:55.206Z,11.13
2023-01-22T13:38:25.293Z,10.60
2023-01-22T13:40:58.160Z,9.88
2023-01-22T13:43:26.877Z,11.93
2023-01-22T13:45:56.607Z,12.43
2023-01-22T13:48:26.919Z,12.23
2023-01-22T13:50:58.678Z,10.80
2023-01-22T13:53:30.916Z,12.85
2023-01-22T13:56:00.129Z,11.85
2023-01-22T13:58:47.928Z,12.07
2023-01-22T14:01:28.671Z,11.57
2023-01-22T14:04:01.391Z,11.85
2023-01-22T14:06:31.624Z,12.27
2023-01-22T14:08:59.749Z,13.40
2023-01-22T14:11:38.449Z,11.25
2023-01-22T14:14:16.344Z,13.63
2023-01-22T14:16:44.577Z,12.43
2023-01-22T14:19:13.240Z,9.75
2023-01-22T14:21:42.986Z,12.30
2023-01-22T14:24:11.145Z,12.60
2023-01-22T14:26:41.093Z,12.07
2023-01-22T14:29:09.343Z,12.27
2023-01-22T14:31:37.464Z,15.02
2023-01-22T14:34:05.513Z,13.27
2023-01-22T14:36:33.528Z,11.95
2023-01-22T14:39:03.227Z,11.40
2023-01-22T14:41:31.891Z,12.25
2023-01-22T14:43:59.852Z,13.77
2023-01-22T14:46:27.863Z,14.27
2023-01-22T14:48:55.870Z,13.57
2023-01-22T14:51:23.880Z,15.65
2023-01-22T14:53:51.924Z,15.52
2023-01-22T14:56:21.330Z,16.35
2023-01-22T14:58:50.209Z,14.18
2023-01-22T15:01:20.641Z,13.65
2023-01-22T15:03:49.449Z,16.05
2023-01-22T15:06:17.395Z,16.92
2023-01-22T15:08:45.391Z,18.00
2023-01-22T15:11:13.392Z,14.75
2023-01-22T15:13:42.767Z,16.17
2023-01-22T15:16:12.097Z,15.60
2023-01-22T15:18:40.314Z,17.73
2023-01-22T15:21:08.928Z,15.20
2023-01-22T15:23:36.952Z,16.67
2023-01-22T15:26:07.943Z,14.88
2023-01-22T15:28:36.042Z,15.02
2023-01-22T15:31:07.928Z,18.58
2023-01-22T15:33:36.719Z,14.15
2023-01-22T15:36:05.626Z,15.67
2023-01-22T15:38:33.578Z,15.07
2023-01-22T15:41:07.125Z,13.93
2023-01-22T15:43:35.225Z,13.55
2023-01-22T15:46:03.199Z,14.80
2023-01-22T15:48:32.581Z,13.97
2023-01-22T15:51:08.079Z,11.95
2023-01-22T15:53:36.139Z,14.80
2023-01-22T15:56:04.641Z,14.13
2023-01-22T15:58:33.076Z,14.18
2023-01-22T16:01:01.214Z,14.90
2023-01-22T16:03:29.318Z,15.85
2023-01-22T16:06:08.767Z,14.32
2023-01-22T16:08:36.903Z,17.00
2023-01-22T16:11:05.386Z,15.23
2023-01-22T16:13:33.790Z,14.88
2023-01-22T16:16:03.333Z,14.73
2023-01-22T16:18:33.630Z,14.10
2023-01-22T16:21:03.755Z,15.40
2023-01-22T16:23:32.665Z,15.80
2023-01-22T16:26:02.216Z,14.43
2023-01-22T16:28:30.198Z,17.38
2023-01-22T16:31:02.781Z,19.00
2023-01-22T16:33:32.804Z,16.63
2023-01-22T16:36:01.499Z,16.25
2023-01-22T16:38:31.513Z,19.13
2023-01-22T16:41:24.067Z,18.17
2023-01-22T16:43:54.822Z,18.67
2023-01-22T16:46:24.542Z,16.45
2023-01-22T16:48:57.101Z,18.70
2023-01-22T16:51:26.839Z,19.75
2023-01-22T16:53:56.660Z,19.05
2023-01-22T16:56:24.587Z,19.73
2023-01-22T16:58:52.510Z,20.17
2023-01-22T17:01:20.708Z,21.02
2023-01-22T17:03:48.791Z,21.33
2023-01-22T17:06:26.390Z,19.33
2023-01-22T17:08:56.122Z,17.30
2023-01-22T17:11:24.356Z,24.13
2023-01-22T17:13:52.615Z,19.27
2023-01-22T17:16:21.478Z,21.40
2023-01-22T17:18:49.456Z,20.67
2023-01-22T17:21:19.421Z,20.52
2023-01-22T17:23:47.383Z,19.67
2023-01-22T17:26:18.401Z,22.27
2023-01-22T17:28:46.614Z,22.60
2023-01-22T17:31:16.442Z,24.92
2023-01-22T17:33:45.261Z,22.10
2023-01-22T17:36:14.794Z,23.38
2023-01-22T17:38:42.958Z,23.25
2023-01-22T17:41:14.125Z,21.73
2023-01-22T17:43:43.920Z,24.05
2023-01-22T17:46:14.650Z,20.98
2023-01-22T17:48:43.372Z,26.58
2023-01-22T17:51:12.898Z,23.92
2023-01-22T17:53:42.786Z,24.63
2023-01-22T17:56:13.197Z,22.80
2023-01-22T17:58:45.003Z,28.05
2023-01-22T18:01:15.061Z,32.60
2023-01-22T18:03:43.146Z,30.33
2023-01-22T18:06:11.651Z,29.50
2023-01-22T18:08:42.217Z,31.15
2023-01-22T18:11:11.987Z,33.22
2023-01-22T18:13:40.245Z,32.40
2023-01-22T18:16:13.789Z,31.55
2023-01-22T18:18:42.681Z,27.00
2023-01-22T18:21:14.167Z,28.90
2023-01-22T18:23:42.172Z,26.80
2023-01-22T18:26:11.161Z,29.02
2023-01-22T18:28:39.393Z,27.73
2023-01-22T18:31:09.701Z,30.57
2023-01-22T18:33:39.202Z,25.40
2023-01-22T18:36:10.575Z,27.75
2023-01-22T18:38:38.927Z,26.38
2023-01-22T18:41:07.917Z,28.07
2023-01-22T18:43:35.969Z,27.77
2023-01-22T18:46:05.442Z,23.15
2023-01-22T18:48:34.770Z,24.02
2023-01-22T18:51:03.156Z,29.13
2023-01-22T18:53:32.540Z,23.30
2023-01-22T18:56:01.171Z,23.42
2023-01-22T18:58:31.043Z,25.33
2023-01-22T19:01:08.771Z,25.33
2023-01-22T19:03:38.882Z,22.60
2023-01-22T19:06:13.444Z,23.00
2023-01-22T19:08:43.203Z,26.92
2023-01-22T19:11:12.259Z,26.00
2023-01-22T19:13:40.673Z,22.52
2023-01-22T19:16:10.876Z,22.00
2023-01-22T19:18:42.387Z,20.77
2023-01-22T19:21:13.184Z,22.30
2023-01-22T19:23:41.146Z,24.38
2023-01-22T19:26:12.852Z,23.27
2023-01-22T19:28:40.909Z,23.27
2023-01-22T19:31:19.258Z,21.60
2023-01-22T19:33:50.381Z,21.70
2023-01-22T19:36:19.349Z,20.40
2023-01-22T19:38:47.342Z,24.42
2023-01-22T19:41:15.891Z,20.92
2023-01-22T19:43:44.259Z,21.98
2023-01-22T19:46:14.629Z,23.45
2023-01-22T19:48:43.053Z,24.20
2023-01-22T19:51:14.404Z,25.65
2023-01-22T19:53:43.004Z,22.92
2023-01-22T19:56:18.499Z,20.30
2023-01-22T19:58:46.723Z,24.55
2023-01-22T20:01:15.806Z,20.63
2023-01-22T20:03:44.158Z,22.25
2023-01-22T20:06:15.183Z,20.85
2023-01-22T20:08:43.904Z,24.45
2023-01-22T20:11:13.108Z,20.27
2023-01-22T20:13:41.744Z,23.15
2023-01-22T20:16:18.449Z,22.05
2023-01-22T20:18:46.792Z,20.13
2023-01-22T20:21:17.529Z,20.33
2023-01-22T20:23:46.222Z,21.92
2023-01-22T20:26:15.176Z,20.40
2023-01-22T20:28:43.401Z,21.85
2023-01-22T20:31:15.771Z,22.98
2023-01-22T20:33:43.940Z,22.83
2023-01-22T20:36:15.568Z,19.50
2023-01-22T20:38:46.085Z,24.15
2023-01-22T20:41:15.011Z,23.52
2023-01-22T20:43:44.606Z,21.00
2023-01-22T20:46:14.680Z,24.13
2023-01-22T20:48:43.725Z,22.08
2023-01-22T20:51:15.504Z,21.75
2023-01-22T20:53:45.500Z,19.80
2023-01-22T20:56:15.379Z,19.95
2023-01-22T20:58:43.379Z,22.10
2023-01-22T21:01:14.431Z,25.30
2023-01-22T21:03:42.654Z,20.38
2023-01-22T21:06:14.104Z,23.02
2023-01-22T21:08:42.813Z,20.40
2023-01-22T21:11:17.768Z,20.03
2023-01-22T21:13:45.754Z,21.40
2023-01-22T21:16:15.125Z,20.60
2023-01-22T21:18:46.165Z,21.55
2023-01-22T21:21:17.667Z,26.52
2023-01-22T21:23:47.872Z,24.02
2023-01-22T21:26:19.172Z,22.63
2023-01-22T21:28:48.318Z,19.67
2023-01-22T21:31:18.454Z,21.85
2023-01-22T21:33:47.103Z,19.35
2023-01-22T21:36:18.273Z,20.48
2023-01-22T21:38:47.221Z,19.25
2023-01-22T21:41:18.408Z,18.50
2023-01-22T21:44:05.669Z,21.00
2023-01-22T21:46:35.676Z,18.13
2023-01-22T21:49:16.169Z,23.63
2023-01-22T21:51:46.044Z,20.45
2023-01-22T21:54:17.189Z,20.85
2023-01-22T21:56:46.574Z,21.05
2023-01-22T21:59:14.723Z,19.90
2023-01-22T22:01:44.942Z,19.13
2023-01-22T22:04:15.040Z,22.40
2023-01-22T22:06:43.536Z,22.97
2023-01-22T22:09:13.773Z,20.75
2023-01-22T22:11:41.746Z,23.58
2023-01-22T22:14:12.670Z,20.10
2023-01-22T22:16:40.787Z,21.55
2023-01-22T22:19:08.909Z,23.65
2023-01-22T22:21:37.483Z,21.70
2023-01-22T22:24:05.981Z,21.35
2023-01-22T22:26:34.219Z,25.70
2023-01-22T22:29:02.175Z,21.80
2023-01-22T22:31:31.694Z,20.30
2023-01-22T22:33:59.627Z,20.27
2023-01-22T22:36:29.272Z,21.98
2023-01-22T22:38:57.415Z,20.30
2023-01-22T22:41:27.755Z,19.02
2023-01-22T22:43:56.580Z,24.33
2023-01-22T22:46:26.360Z,19.65
2023-01-22T22:48:57.467Z,25.17
2023-01-22T22:51:26.827Z,22.13
2023-01-22T22:53:56.543Z,23.27
2023-01-22T22:56:25.053Z,24.52
2023-01-22T22:58:53.352Z,21.83
2023-01-22T23:01:24.768Z,20.50
2023-01-22T23:03:53.813Z,19.48
2023-01-22T23:06:25.420Z,21.60
2023-01-22T23:08:56.562Z,21.40
2023-01-22T23:11:28.191Z,18.77
2023-01-22T23:14:01.190Z,20.75
2023-01-22T23:16:30.745Z,22.08
2023-01-22T23:19:00.701Z,19.40
2023-01-22T23:21:30.713Z,20.85
2023-01-22T23:23:58.784Z,20.52
2023-01-22T23:26:30.130Z,16.92
2023-01-22T23:29:02.076Z,22.10
2023-01-22T23:31:31.714Z,21.37
2023-01-22T23:34:01.341Z,21.10
2023-01-22T23:36:32.670Z,19.88
2023-01-22T23:39:00.647Z,20.03
2023-01-22T23:41:28.711Z,21.70
2023-01-22T23:43:56.704Z,17.15
2023-01-22T23:46:26.826Z,18.30
2023-01-22T23:48:56.317Z,21.38
2023-01-22T23:51:24.441Z,24.73
2023-01-22T23:53:54.368Z,17.33
2023-01-22T23:56:23.923Z,16.70
2023-01-22T23:58:54.241Z,17.02
